Spirit Of Vi — CFL2070 — position and weather

sailwx.info

Track history (hours):
 
Tides and Currents Weather Stations Pressure Air Temp Water Temp Dewpoint Dewpoint Depression Visibility Wind Speed Wind Dir Waves Ship Positions

Spirit Of Vi

Last reported at 2019-Nov-20 08:30 UTC. Time now 2019-Nov-20 10:11 UTC.
Position N 48°41' W 123°25'.

Length 167 m; draft 4.8 m.

Type: Passenger vessel. MMSI: 316001269.

Date/timePositionNaut miles runAvg speedWind from/ knotsBaromVisibWave heightAir tempDewpointWater temp
2019-Nov-20 08:30N 48°41' W 123°25'0 0.0
2019-Nov-20 07:30N 48°41' W 123°25'0 0.0
2019-Nov-20 06:30N 48°41' W 123°25'2110.7
2019-Nov-20 04:31N 48°60' W 123°08'1413.7
2019-Nov-20 03:31N 48°49' W 123°20'8 7.9
2019-Nov-20 02:30N 48°41' W 123°25'6 1.9
2019-Nov-19 23:30N 48°47' W 123°21'6 5.7
2019-Nov-19 22:30N 48°41' W 123°25'2214.6
2019-Nov-19 21:00N 49°00' W 123°08'22 8.7
2019-Nov-19 18:30N 48°41' W 123°25'815.7
2019-Nov-19 18:00N 48°49' W 123°21'14 9.4
2019-Nov-19 16:31N 49°00' W 123°08'2210.9
2019-Nov-19 14:30N 48°41' W 123°25'0 0.0
2019-Nov-19 13:28N 48°41' W 123°25'0 0.0
2019-Nov-19 10:58N 48°41' W 123°25'0 0.0
2019-Nov-19 08:58N 48°41' W 123°25'0 0.0
2019-Nov-19 06:59N 48°41' W 123°25'22 8.7
2019-Nov-19 04:31N 49°00' W 123°08'15 6.1
2019-Nov-19 02:00N 48°47' W 123°21'0 0.0
2019-Nov-18 23:30N 48°47' W 123°21'6 6.5
2019-Nov-18 22:30N 48°41' W 123°25'713.5
2019-Nov-18 22:00N 48°48' W 123°21'917.7
2019-Nov-18 21:31N 48°56' W 123°15'7 6.6
2019-Nov-18 20:30N 49°00' W 123°08'816.0
2019-Nov-18 20:00N 48°54' W 123°16'815.0
2019-Nov-18 19:30N 48°47' W 123°21'9 2.5
2019-Nov-18 16:00N 48°55' W 123°15'816.1
2019-Nov-18 15:30N 48°48' W 123°21'7 2.9
2019-Nov-18 12:59N 48°41' W 123°25'0 0.0
2019-Nov-18 12:29N 48°41' W 123°25'0 0.0
2019-Nov-18 10:59N 48°41' W 123°25'0 0.0
2019-Nov-18 09:29N 48°41' W 123°25'14 3.5
2019-Nov-18 05:31N 48°54' W 123°17'816.8
2019-Nov-18 05:01N 49°00' W 123°08'9 9.2
2019-Nov-18 04:00N 48°53' W 123°17'815.5
2019-Nov-18 03:30N 48°46' W 123°21'5 3.4
2019-Nov-18 02:01N 48°51' W 123°21'1312.6
2019-Nov-18 01:01N 49°00' W 123°08'1812.2
2019-Nov-17 23:31N 48°44' W 123°21'4 7.5
2019-Nov-17 23:00N 48°41' W 123°25'1110.6
2019-Nov-17 22:01N 48°52' W 123°21'2 1.0
2019-Nov-17 20:00N 48°53' W 123°18'3 1.3
2019-Nov-17 17:30N 48°55' W 123°15'714.0
2019-Nov-17 17:01N 49°00' W 123°08'22 2.3
2019-Nov-17 07:30N 48°41' W 123°25'22 7.3
2019-Nov-17 04:31N 49°00' W 123°08'714.7
2019-Nov-17 04:00N 48°55' W 123°15'713.9
2019-Nov-17 03:30N 48°49' W 123°21'6 3.2
2019-Nov-17 01:31N 48°55' W 123°17'1 0.3
2019-Nov-16 21:30N 48°55' W 123°16'7 7.1
2019-Nov-16 20:31N 49°00' W 123°08'1616.1
2019-Nov-16 19:30N 48°47' W 123°21'611.5
2019-Nov-16 19:01N 48°41' W 123°25'0 0.1
2019-Nov-16 18:30N 48°41' W 123°25'1515.1
2019-Nov-16 17:31N 48°55' W 123°15'714.2
2019-Nov-16 17:00N 49°00' W 123°08'8 7.7
2019-Nov-16 16:00N 48°54' W 123°15'714.6
2019-Nov-16 15:31N 48°48' W 123°21'7 0.9
2019-Nov-16 07:30N 48°41' W 123°25'0 0.0
2019-Nov-16 06:30N 48°41' W 123°25'7 2.4
2019-Nov-16 03:30N 48°48' W 123°21'714.2
2019-Nov-16 03:00N 48°41' W 123°25'0 0.0
2019-Nov-16 02:30N 48°41' W 123°25'0 0.0
2019-Nov-15 22:30N 48°41' W 123°25'12 5.0
2019-Nov-15 20:00N 48°53' W 123°18'1212.5
2019-Nov-15 19:00N 48°41' W 123°25'8 8.5
2019-Nov-15 18:00N 48°49' W 123°21'3 1.1
2019-Nov-15 15:31N 48°47' W 123°21'6 3.0
2019-Nov-15 13:30N 48°41' W 123°25'0 0.0
2019-Nov-15 11:58N 48°41' W 123°25'0 0.0
2019-Nov-15 09:29N 48°41' W 123°25'0 0.0
2019-Nov-15 08:29N 48°41' W 123°25'0 0.0
2019-Nov-15 06:58N 48°41' W 123°25'22 8.9
2019-Nov-15 04:30N 49°00' W 123°08'1414.5
2019-Nov-15 03:30N 48°49' W 123°21'6 1.8
2019-Nov-15 00:01N 48°54' W 123°16'14 9.3
2019-Nov-14 22:30N 48°41' W 123°25'7 2.2
2019-Nov-14 19:31N 48°47' W 123°21'713.1
2019-Nov-14 19:00N 48°41' W 123°25'0 0.1
2019-Nov-14 18:30N 48°41' W 123°25'815.1
2019-Nov-14 18:01N 48°49' W 123°21'815.3
2019-Nov-14 17:31N 48°55' W 123°16'15 2.2
2019-Nov-14 10:29N 48°41' W 123°25'0 0.0
2019-Nov-14 06:29N 48°41' W 123°25'14 5.8
2019-Nov-14 04:01N 48°54' W 123°15'8 4.2
2019-Nov-14 02:00N 48°47' W 123°21'1 0.4
2019-Nov-13 23:30N 48°48' W 123°21'7 3.3
2019-Nov-13 21:31N 48°54' W 123°17'9 8.7
2019-Nov-13 20:30N 49°00' W 123°08'2211.0
2019-Nov-13 18:31N 48°41' W 123°25'815.2
2019-Nov-13 18:01N 48°49' W 123°21'6 3.0
2019-Nov-13 16:01N 48°54' W 123°16'14 9.0
2019-Nov-13 14:30N 48°41' W 123°25'0 0.0
2019-Nov-13 14:00N 48°41' W 123°25'0 0.0
2019-Nov-13 12:30N 48°41' W 123°25'0 0.0
2019-Nov-13 11:30N 48°41' W 123°25'0 0.0
2019-Nov-13 10:00N 48°41' W 123°25'0 0.0
2019-Nov-13 09:30N 48°41' W 123°25'0 0.0
2019-Nov-13 08:30N 48°41' W 123°25'8 3.3
2019-Nov-13 06:00N 48°49' W 123°20'8 2.8
2019-Nov-13 03:01N 48°41' W 123°25'0 0.2
2019-Nov-13 02:31N 48°41' W 123°25'714.5
2019-Nov-13 02:01N 48°48' W 123°21'6 3.2
2019-Nov-13 00:00N 48°54' W 123°16'816.7
2019-Nov-12 23:30N 48°46' W 123°21'2 1.0
2019-Nov-12 22:00N 48°48' W 123°21'0 0.1
2019-Nov-12 18:00N 48°47' W 123°21'0 0.1
2019-Nov-12 15:30N 48°47' W 123°21'612.7
2019-Nov-12 15:00N 48°41' W 123°25'0 0.0
2019-Nov-12 14:00N 48°41' W 123°25'0 0.0
2019-Nov-12 13:26N 48°41' W 123°25'0 0.0
2019-Nov-12 12:56N 48°41' W 123°25'0 0.0
2019-Nov-12 11:59N 48°41' W 123°25'0 0.0
2019-Nov-12 11:29N 48°41' W 123°25'0 0.0
2019-Nov-12 09:59N 48°41' W 123°25'0 0.0
2019-Nov-12 08:59N 48°41' W 123°25'0 0.0
2019-Nov-12 07:29N 48°41' W 123°25'11 7.3
2019-Nov-12 06:01N 48°52' W 123°19'9 3.5
2019-Nov-12 03:30N 48°44' W 123°25'2 2.1
2019-Nov-12 02:30N 48°42' W 123°24'1817.9
2019-Nov-12 01:30N 48°58' W 123°12'6 4.1
2019-Nov-12 00:00N 48°53' W 123°18'1 0.5
2019-Nov-11 21:30N 48°54' W 123°17'917.3
2019-Nov-11 21:00N 49°00' W 123°08'22 8.8
2019-Nov-11 18:30N 48°41' W 123°25'1414.4
2019-Nov-11 17:31N 48°55' W 123°16'815.7
2019-Nov-11 17:00N 49°00' W 123°08'0 0.1
2019-Nov-11 16:30N 49°00' W 123°08'2214.6
2019-Nov-11 15:00N 48°41' W 123°25'0 0.0
2019-Nov-11 13:00N 48°41' W 123°25'0 0.0
2019-Nov-11 12:00N 48°41' W 123°25'0 0.0
2019-Nov-11 10:30N 48°41' W 123°25'0 0.0
2019-Nov-11 09:00N 48°41' W 123°25'7 2.4
2019-Nov-11 06:01N 48°48' W 123°21'816.0
2019-Nov-11 05:30N 48°55' W 123°15'11 5.3
2019-Nov-11 03:31N 48°46' W 123°22'5 4.7
2019-Nov-11 02:30N 48°41' W 123°25'815.6
2019-Nov-11 02:01N 48°49' W 123°21'1414.2
2019-Nov-11 01:00N 49°00' W 123°08'0 0.1
2019-Nov-11 00:30N 49°00' W 123°08'1616.5
2019-Nov-10 23:30N 48°46' W 123°21'5 5.5
2019-Nov-10 22:30N 48°41' W 123°25'2214.6
2019-Nov-10 21:00N 49°00' W 123°08'22 8.8
2019-Nov-10 18:30N 48°41' W 123°25'15 5.8
2019-Nov-10 16:01N 48°54' W 123°15'15 2.1
2019-Nov-10 08:58N 48°41' W 123°25'  
Track history (hours):
 
Tides and Currents Weather Stations Pressure Air Temp Water Temp Dewpoint Dewpoint Depression Visibility Wind Speed Wind Dir Waves Ship Positions

Spirit Of Vi

Last reported at 2019-Nov-20 08:30 UTC. Time now 2019-Nov-20 10:11 UTC.
Position N 48°41' W 123°25'.

Length 167 m; draft 4.8 m.

Type: Passenger vessel. MMSI: 316001269.

Date/timePositionNaut miles runAvg speedWind from/ knotsBaromVisibWave heightAir tempDewpointWater temp
2019-Nov-20 08:30N 48°41' W 123°25'0 0.0
2019-Nov-20 07:30N 48°41' W 123°25'0 0.0
2019-Nov-20 06:30N 48°41' W 123°25'2110.7
2019-Nov-20 04:31N 48°60' W 123°08'1413.7
2019-Nov-20 03:31N 48°49' W 123°20'8 7.9
2019-Nov-20 02:30N 48°41' W 123°25'6 1.9
2019-Nov-19 23:30N 48°47' W 123°21'6 5.7
2019-Nov-19 22:30N 48°41' W 123°25'2214.6
2019-Nov-19 21:00N 49°00' W 123°08'22 8.7
2019-Nov-19 18:30N 48°41' W 123°25'815.7
2019-Nov-19 18:00N 48°49' W 123°21'14 9.4
2019-Nov-19 16:31N 49°00' W 123°08'2210.9
2019-Nov-19 14:30N 48°41' W 123°25'0 0.0
2019-Nov-19 13:28N 48°41' W 123°25'0 0.0
2019-Nov-19 10:58N 48°41' W 123°25'0 0.0
2019-Nov-19 08:58N 48°41' W 123°25'0 0.0
2019-Nov-19 06:59N 48°41' W 123°25'22 8.7
2019-Nov-19 04:31N 49°00' W 123°08'15 6.1
2019-Nov-19 02:00N 48°47' W 123°21'0 0.0
2019-Nov-18 23:30N 48°47' W 123°21'6 6.5
2019-Nov-18 22:30N 48°41' W 123°25'713.5
2019-Nov-18 22:00N 48°48' W 123°21'917.7
2019-Nov-18 21:31N 48°56' W 123°15'7 6.6
2019-Nov-18 20:30N 49°00' W 123°08'816.0
2019-Nov-18 20:00N 48°54' W 123°16'815.0
2019-Nov-18 19:30N 48°47' W 123°21'9 2.5
2019-Nov-18 16:00N 48°55' W 123°15'816.1
2019-Nov-18 15:30N 48°48' W 123°21'7 2.9
2019-Nov-18 12:59N 48°41' W 123°25'0 0.0
2019-Nov-18 12:29N 48°41' W 123°25'0 0.0
2019-Nov-18 10:59N 48°41' W 123°25'0 0.0
2019-Nov-18 09:29N 48°41' W 123°25'14 3.5
2019-Nov-18 05:31N 48°54' W 123°17'816.8
2019-Nov-18 05:01N 49°00' W 123°08'9 9.2
2019-Nov-18 04:00N 48°53' W 123°17'815.5
2019-Nov-18 03:30N 48°46' W 123°21'5 3.4
2019-Nov-18 02:01N 48°51' W 123°21'1312.6
2019-Nov-18 01:01N 49°00' W 123°08'1812.2
2019-Nov-17 23:31N 48°44' W 123°21'4 7.5
2019-Nov-17 23:00N 48°41' W 123°25'1110.6
2019-Nov-17 22:01N 48°52' W 123°21'2 1.0
2019-Nov-17 20:00N 48°53' W 123°18'3 1.3
2019-Nov-17 17:30N 48°55' W 123°15'714.0
2019-Nov-17 17:01N 49°00' W 123°08'22 2.3
2019-Nov-17 07:30N 48°41' W 123°25'22 7.3
2019-Nov-17 04:31N 49°00' W 123°08'714.7
2019-Nov-17 04:00N 48°55' W 123°15'713.9
2019-Nov-17 03:30N 48°49' W 123°21'6 3.2
2019-Nov-17 01:31N 48°55' W 123°17'1 0.3
2019-Nov-16 21:30N 48°55' W 123°16'7 7.1
2019-Nov-16 20:31N 49°00' W 123°08'1616.1
2019-Nov-16 19:30N 48°47' W 123°21'611.5
2019-Nov-16 19:01N 48°41' W 123°25'0 0.1
2019-Nov-16 18:30N 48°41' W 123°25'1515.1
2019-Nov-16 17:31N 48°55' W 123°15'714.2
2019-Nov-16 17:00N 49°00' W 123°08'8 7.7
2019-Nov-16 16:00N 48°54' W 123°15'714.6
2019-Nov-16 15:31N 48°48' W 123°21'7 0.9
2019-Nov-16 07:30N 48°41' W 123°25'0 0.0
2019-Nov-16 06:30N 48°41' W 123°25'7 2.4
2019-Nov-16 03:30N 48°48' W 123°21'714.2
2019-Nov-16 03:00N 48°41' W 123°25'0 0.0
2019-Nov-16 02:30N 48°41' W 123°25'0 0.0
2019-Nov-15 22:30N 48°41' W 123°25'12 5.0
2019-Nov-15 20:00N 48°53' W 123°18'1212.5
2019-Nov-15 19:00N 48°41' W 123°25'8 8.5
2019-Nov-15 18:00N 48°49' W 123°21'3 1.1
2019-Nov-15 15:31N 48°47' W 123°21'6 3.0
2019-Nov-15 13:30N 48°41' W 123°25'0 0.0
2019-Nov-15 11:58N 48°41' W 123°25'0 0.0
2019-Nov-15 09:29N 48°41' W 123°25'0 0.0
2019-Nov-15 08:29N 48°41' W 123°25'0 0.0
2019-Nov-15 06:58N 48°41' W 123°25'22 8.9
2019-Nov-15 04:30N 49°00' W 123°08'1414.5
2019-Nov-15 03:30N 48°49' W 123°21'6 1.8
2019-Nov-15 00:01N 48°54' W 123°16'14 9.3
2019-Nov-14 22:30N 48°41' W 123°25'7 2.2
2019-Nov-14 19:31N 48°47' W 123°21'713.1
2019-Nov-14 19:00N 48°41' W 123°25'0 0.1
2019-Nov-14 18:30N 48°41' W 123°25'815.1
2019-Nov-14 18:01N 48°49' W 123°21'815.3
2019-Nov-14 17:31N 48°55' W 123°16'15 2.2
2019-Nov-14 10:29N 48°41' W 123°25'0 0.0
2019-Nov-14 06:29N 48°41' W 123°25'14 5.8
2019-Nov-14 04:01N 48°54' W 123°15'8 4.2
2019-Nov-14 02:00N 48°47' W 123°21'1 0.4
2019-Nov-13 23:30N 48°48' W 123°21'7 3.3
2019-Nov-13 21:31N 48°54' W 123°17'9 8.7
2019-Nov-13 20:30N 49°00' W 123°08'2211.0
2019-Nov-13 18:31N 48°41' W 123°25'815.2
2019-Nov-13 18:01N 48°49' W 123°21'6 3.0
2019-Nov-13 16:01N 48°54' W 123°16'14 9.0
2019-Nov-13 14:30N 48°41' W 123°25'0 0.0
2019-Nov-13 14:00N 48°41' W 123°25'0 0.0
2019-Nov-13 12:30N 48°41' W 123°25'0 0.0
2019-Nov-13 11:30N 48°41' W 123°25'0 0.0
2019-Nov-13 10:00N 48°41' W 123°25'0 0.0
2019-Nov-13 09:30N 48°41' W 123°25'0 0.0
2019-Nov-13 08:30N 48°41' W 123°25'8 3.3
2019-Nov-13 06:00N 48°49' W 123°20'8 2.8
2019-Nov-13 03:01N 48°41' W 123°25'0 0.2
2019-Nov-13 02:31N 48°41' W 123°25'714.5
2019-Nov-13 02:01N 48°48' W 123°21'6 3.2
2019-Nov-13 00:00N 48°54' W 123°16'816.7
2019-Nov-12 23:30N 48°46' W 123°21'2 1.0
2019-Nov-12 22:00N 48°48' W 123°21'0 0.1
2019-Nov-12 18:00N 48°47' W 123°21'0 0.1
2019-Nov-12 15:30N 48°47' W 123°21'612.7
2019-Nov-12 15:00N 48°41' W 123°25'0 0.0
2019-Nov-12 14:00N 48°41' W 123°25'0 0.0
2019-Nov-12 13:26N 48°41' W 123°25'0 0.0
2019-Nov-12 12:56N 48°41' W 123°25'0 0.0
2019-Nov-12 11:59N 48°41' W 123°25'0 0.0
2019-Nov-12 11:29N 48°41' W 123°25'0 0.0
2019-Nov-12 09:59N 48°41' W 123°25'0 0.0
2019-Nov-12 08:59N 48°41' W 123°25'0 0.0
2019-Nov-12 07:29N 48°41' W 123°25'11 7.3
2019-Nov-12 06:01N 48°52' W 123°19'9 3.5
2019-Nov-12 03:30N 48°44' W 123°25'2 2.1
2019-Nov-12 02:30N 48°42' W 123°24'1817.9
2019-Nov-12 01:30N 48°58' W 123°12'6 4.1
2019-Nov-12 00:00N 48°53' W 123°18'1 0.5
2019-Nov-11 21:30N 48°54' W 123°17'917.3
2019-Nov-11 21:00N 49°00' W 123°08'22 8.8
2019-Nov-11 18:30N 48°41' W 123°25'1414.4
2019-Nov-11 17:31N 48°55' W 123°16'815.7
2019-Nov-11 17:00N 49°00' W 123°08'0 0.1
2019-Nov-11 16:30N 49°00' W 123°08'2214.6
2019-Nov-11 15:00N 48°41' W 123°25'0 0.0
2019-Nov-11 13:00N 48°41' W 123°25'0 0.0
2019-Nov-11 12:00N 48°41' W 123°25'0 0.0
2019-Nov-11 10:30N 48°41' W 123°25'0 0.0
2019-Nov-11 09:00N 48°41' W 123°25'7 2.4
2019-Nov-11 06:01N 48°48' W 123°21'816.0
2019-Nov-11 05:30N 48°55' W 123°15'11 5.3
2019-Nov-11 03:31N 48°46' W 123°22'5 4.7
2019-Nov-11 02:30N 48°41' W 123°25'815.6
2019-Nov-11 02:01N 48°49' W 123°21'1414.2
2019-Nov-11 01:00N 49°00' W 123°08'0 0.1
2019-Nov-11 00:30N 49°00' W 123°08'1616.5
2019-Nov-10 23:30N 48°46' W 123°21'5 5.5
2019-Nov-10 22:30N 48°41' W 123°25'2214.6
2019-Nov-10 21:00N 49°00' W 123°08'22 8.8
2019-Nov-10 18:30N 48°41' W 123°25'15 5.8
2019-Nov-10 16:01N 48°54' W 123°15'15 2.1
2019-Nov-10 08:58N 48°41' W 123°25'  

Dump ship's entire track history